createdAt,value
2022-10-06T05:06:13.089Z,101324.38
2022-10-06T05:09:16.695Z,101319.60
2022-10-06T05:11:54.621Z,101321.64
2022-10-06T05:17:49.578Z,101324.05
2022-10-06T05:25:23.380Z,101312.30
2022-10-06T05:28:29.435Z,101314.71
2022-10-06T05:35:32.585Z,101311.14
2022-10-06T05:37:59.615Z,101313.27
2022-10-06T05:40:43.022Z,101315.52
2022-10-06T05:43:12.552Z,101315.68
2022-10-06T05:49:33.354Z,101320.56
2022-10-06T05:52:08.284Z,101323.26
2022-10-06T05:54:57.920Z,101325.07
2022-10-06T05:57:54.684Z,101323.88
2022-10-06T06:00:22.514Z,101322.01
2022-10-06T06:02:58.563Z,101322.05
2022-10-06T06:05:36.643Z,101324.46
2022-10-06T06:11:37.733Z,101330.64
2022-10-06T06:14:50.943Z,101331.95
2022-10-06T06:18:19.560Z,101334.77
2022-10-06T06:21:00.112Z,101339.91
2022-10-06T06:23:46.317Z,101344.70
2022-10-06T06:26:47.912Z,101349.28
2022-10-06T06:29:17.718Z,101347.54
2022-10-06T06:31:48.085Z,101354.49
2022-10-06T06:34:43.743Z,101355.73
2022-10-06T06:38:00.100Z,101355.45
2022-10-06T06:40:58.551Z,101358.20
2022-10-06T06:44:44.261Z,101359.11
2022-10-06T06:47:47.551Z,101360.27
2022-10-06T06:50:32.808Z,101362.48
2022-10-06T06:53:01.959Z,101367.08
2022-10-06T07:00:36.395Z,101372.31
2022-10-06T07:03:56.018Z,101373.39
2022-10-06T07:11:16.066Z,101376.69
2022-10-06T07:22:36.718Z,101373.27
2022-10-06T07:35:08.178Z,101370.64
2022-10-06T07:38:28.729Z,101369.14
2022-10-06T07:41:58.896Z,101370.34
2022-10-06T07:44:32.409Z,101370.45
2022-10-06T07:47:02.192Z,101373.92
2022-10-06T07:49:51.641Z,101373.38
2022-10-06T07:52:18.999Z,101373.61
2022-10-06T07:55:05.898Z,101370.36
2022-10-06T07:58:23.806Z,101368.34
2022-10-06T08:01:21.587Z,101364.57
2022-10-06T08:04:18.006Z,101363.20
2022-10-06T08:18:02.089Z,101368.02
2022-10-06T08:30:29.538Z,101363.63
2022-10-06T08:50:57.650Z,101362.28
2022-10-06T08:51:55.670Z,101367.75
2022-10-06T08:53:58.434Z,101363.69
2022-10-06T08:56:51.454Z,101363.90
2022-10-06T09:00:06.653Z,101359.83
2022-10-06T09:04:24.755Z,101362.35
2022-10-06T09:07:29.933Z,101368.37
2022-10-06T09:10:54.633Z,101371.17
2022-10-06T09:13:40.745Z,101376.20
2022-10-06T09:17:34.882Z,101378.91
2022-10-06T09:24:46.945Z,101383.63
2022-10-06T09:27:33.311Z,101379.46
2022-10-06T09:30:05.697Z,101378.54
2022-10-06T09:33:06.289Z,101379.41
2022-10-06T09:36:18.743Z,101379.72
2022-10-06T09:50:26.993Z,101377.25
2022-10-06T10:06:33.866Z,101370.95
2022-10-06T10:19:06.131Z,101359.98
2022-10-06T10:22:44.073Z,101360.27
2022-10-06T10:25:34.508Z,101356.67
2022-10-06T10:35:08.851Z,101349.93
2022-10-06T10:37:27.050Z,101350.73
2022-10-06T10:49:36.980Z,101345.06
2022-10-06T10:57:01.018Z,101337.52
2022-10-06T11:01:24.851Z,101336.96
2022-10-06T11:05:17.331Z,101333.44
2022-10-06T11:11:02.675Z,101327.91
2022-10-06T11:14:15.024Z,101329.20
2022-10-06T11:17:48.853Z,101322.62
2022-10-06T11:27:43.576Z,101317.66
2022-10-06T11:31:16.556Z,101321.05
2022-10-06T11:33:17.125Z,101318.48
2022-10-06T11:35:55.352Z,101313.59
2022-10-06T11:48:19.193Z,101304.04
2022-10-06T11:51:24.619Z,101301.85
2022-10-06T11:54:39.622Z,101304.83
2022-10-06T12:02:28.889Z,101292.88
2022-10-06T12:12:45.897Z,101288.40
2022-10-06T12:13:51.318Z,101292.02
2022-10-06T12:20:40.757Z,101288.38
2022-10-06T12:23:35.822Z,101288.05
2022-10-06T12:30:50.178Z,101287.20
2022-10-06T12:33:42.617Z,101289.27
2022-10-06T12:36:21.290Z,101295.03
2022-10-06T12:39:05.756Z,101296.48
2022-10-06T12:42:23.347Z,101296.75
2022-10-06T12:44:51.189Z,101291.44
2022-10-06T12:51:42.070Z,101294.79
2022-10-06T12:54:35.072Z,101290.96
2022-10-06T12:57:18.097Z,101291.52
2022-10-06T12:59:59.133Z,101288.39
2022-10-06T13:02:34.487Z,101284.95
2022-10-06T13:05:10.895Z,101279.47
2022-10-06T13:08:42.461Z,101277.30
2022-10-06T13:11:15.019Z,101270.64
2022-10-06T13:15:18.822Z,101271.20
2022-10-06T13:18:13.966Z,101274.51
2022-10-06T13:20:57.060Z,101276.91
2022-10-06T17:52:41.626Z,101389.95
2022-10-06T17:52:43.103Z,101391.39
2022-10-06T20:16:14.438Z,101440.16
2022-10-06T20:18:48.614Z,101442.48
2022-10-06T20:22:39.021Z,101443.12
2022-10-06T20:26:20.396Z,101439.73
2022-10-06T20:32:25.283Z,101434.06
2022-10-06T20:33:13.760Z,101436.98
2022-10-06T20:35:46.661Z,101432.62
2022-10-06T20:43:00.242Z,101429.98
2022-10-06T20:45:26.979Z,101434.25
2022-10-06T20:47:54.162Z,101437.56
2022-10-06T20:48:50.020Z,101426.18
2022-10-06T20:50:23.383Z,101436.78
2022-10-06T20:53:07.126Z,101438.27
2022-10-06T20:56:13.413Z,101435.92
2022-10-06T20:58:54.551Z,101431.75
2022-10-06T21:05:23.467Z,101429.59
2022-10-06T21:07:50.408Z,101430.61
2022-10-06T21:10:22.479Z,101430.23
2022-10-06T21:12:51.377Z,101425.48
2022-10-06T21:16:14.664Z,101429.39
2022-10-06T21:19:11.702Z,101437.30
2022-10-06T21:21:51.482Z,101438.00
2022-10-06T21:24:40.065Z,101438.68
2022-10-06T21:27:10.941Z,101435.84
2022-10-06T21:29:42.118Z,101437.45
2022-10-06T21:36:43.447Z,101438.14
2022-10-06T21:39:13.912Z,101436.60
2022-10-06T21:41:46.606Z,101434.19
2022-10-06T21:44:16.385Z,101434.24
2022-10-06T21:47:49.847Z,101434.52
2022-10-06T21:51:03.221Z,101437.35
2022-10-06T21:58:28.474Z,101434.82
2022-10-06T22:05:30.339Z,101430.95
2022-10-06T22:12:32.310Z,101424.94
2022-10-06T22:15:51.135Z,101422.92
2022-10-06T23:02:23.630Z,101412.89
